createdAt,value
2018-04-10T00:00:54.416Z,8.94
2018-04-10T00:03:20.319Z,8.92
2018-04-10T00:05:46.194Z,8.96
2018-04-10T00:08:12.052Z,9.09
2018-04-10T00:10:37.926Z,9.15
2018-04-10T00:13:03.784Z,9.15
2018-04-10T00:15:29.640Z,9.15
2018-04-10T00:17:55.602Z,9.17
2018-04-10T00:20:21.447Z,9.26
2018-04-10T00:22:47.268Z,9.01
2018-04-10T00:25:13.152Z,8.71
2018-04-10T00:27:38.992Z,8.34
2018-04-10T00:30:04.985Z,8.57
2018-04-10T00:32:30.819Z,8.65
2018-04-10T00:34:56.672Z,8.80
2018-04-10T00:37:22.525Z,8.85
2018-04-10T00:39:48.331Z,8.85
2018-04-10T00:42:14.175Z,8.88
2018-04-10T00:44:40.016Z,8.70
2018-04-10T00:47:05.873Z,8.59
2018-04-10T00:49:31.720Z,8.50
2018-04-10T00:51:57.557Z,8.58
2018-04-10T00:54:23.372Z,8.61
2018-04-10T00:56:49.217Z,8.29
2018-04-10T00:59:15.075Z,7.87
2018-04-10T01:01:40.927Z,8.14
2018-04-10T01:04:06.841Z,8.08
2018-04-10T01:06:32.744Z,8.20
2018-04-10T01:08:58.587Z,8.24
2018-04-10T01:11:24.434Z,8.22
2018-04-10T01:13:50.303Z,8.35
2018-04-10T01:16:16.129Z,8.17
2018-04-10T01:18:41.985Z,7.92
2018-04-10T01:21:07.896Z,8.28
2018-04-10T01:23:33.721Z,8.17
2018-04-10T01:25:59.576Z,8.13
2018-04-10T01:28:25.443Z,8.16
2018-04-10T01:30:51.353Z,8.23
2018-04-10T01:33:17.171Z,8.24
2018-04-10T01:35:42.980Z,8.11
2018-04-10T01:38:08.812Z,8.00
2018-04-10T01:40:34.683Z,8.02
2018-04-10T01:43:00.551Z,8.00
2018-04-10T01:45:26.458Z,7.93
2018-04-10T01:47:52.308Z,7.93
2018-04-10T01:50:18.157Z,8.01
2018-04-10T01:52:43.968Z,7.90
2018-04-10T01:55:09.813Z,7.77
2018-04-10T01:57:35.668Z,7.63
2018-04-10T02:00:01.520Z,7.47
2018-04-10T02:02:27.375Z,7.53
2018-04-10T02:04:53.271Z,7.45
2018-04-10T02:07:19.104Z,7.53
2018-04-10T02:10:03.500Z,7.47
2018-04-10T02:12:29.329Z,7.30
2018-04-10T02:14:55.180Z,7.21
2018-04-10T02:17:21.108Z,7.29
2018-04-10T02:19:59.242Z,7.16
2018-04-10T02:22:37.339Z,6.71
2018-04-10T02:25:15.498Z,7.11
2018-04-10T02:27:59.932Z,7.30
2018-04-10T02:30:25.804Z,7.36
2018-04-10T02:33:10.179Z,7.29
2018-04-10T02:35:36.064Z,7.47
2018-04-10T02:38:14.336Z,7.32
2018-04-10T02:40:52.492Z,7.50
2018-04-10T02:43:24.389Z,7.40
2018-04-10T02:45:50.260Z,7.27
2018-04-10T02:48:16.117Z,7.14
2018-04-10T02:50:41.962Z,6.68
2018-04-10T02:53:07.820Z,6.26
2018-04-10T02:55:33.672Z,6.31
2018-04-10T02:57:59.528Z,6.67
2018-04-10T03:00:25.391Z,6.75
2018-04-10T03:02:51.229Z,6.85
2018-04-10T03:05:17.095Z,6.85
2018-04-10T03:07:42.915Z,6.78
2018-04-10T03:10:08.731Z,6.69
2018-04-10T03:12:34.556Z,6.58
2018-04-10T03:15:00.411Z,6.50
2018-04-10T03:17:26.261Z,6.43
2018-04-10T03:19:52.092Z,6.48
2018-04-10T03:22:17.948Z,6.70
2018-04-10T03:24:43.764Z,6.78
2018-04-10T03:27:09.822Z,6.87
2018-04-10T03:29:35.740Z,6.78
2018-04-10T03:32:01.609Z,6.52
2018-04-10T03:34:27.453Z,6.88
2018-04-10T03:36:53.343Z,6.83
2018-04-10T03:39:19.231Z,6.70
2018-04-10T03:41:45.052Z,6.39
2018-04-10T03:44:10.899Z,6.40
2018-04-10T03:46:43.773Z,6.58
2018-04-10T03:49:09.604Z,6.49
2018-04-10T03:51:35.441Z,6.59
2018-04-10T03:54:01.286Z,6.69
2018-04-10T03:56:27.117Z,6.79
2018-04-10T03:58:52.987Z,6.73
2018-04-10T04:01:18.867Z,6.71
2018-04-10T04:03:44.737Z,6.60
2018-04-10T04:06:10.572Z,6.64
2018-04-10T04:08:36.574Z,6.53
2018-04-10T04:11:02.612Z,6.47
2018-04-10T04:13:28.475Z,6.31
2018-04-10T04:15:54.716Z,6.40
2018-04-10T04:18:33.165Z,6.51
2018-04-10T04:21:11.369Z,6.41
2018-04-10T04:23:37.212Z,6.34
2018-04-10T04:26:03.155Z,6.37
2018-04-10T04:28:28.977Z,6.32
2018-04-10T04:31:01.861Z,6.25
2018-04-10T04:33:27.767Z,6.18
2018-04-10T04:35:53.641Z,6.20
2018-04-10T04:38:19.538Z,6.12
2018-04-10T04:40:45.446Z,6.21
2018-04-10T04:43:11.339Z,6.18
2018-04-10T04:45:37.249Z,6.09
2018-04-10T04:48:03.110Z,5.90
2018-04-10T04:50:28.983Z,5.27
2018-04-10T04:52:54.821Z,5.61
2018-04-10T04:55:20.679Z,5.82
2018-04-10T04:57:46.563Z,5.94
2018-04-10T05:00:12.481Z,5.98
2018-04-10T05:02:38.324Z,6.03
2018-04-10T05:05:04.234Z,6.02
2018-04-10T05:07:30.130Z,6.21
2018-04-10T05:09:55.972Z,6.14
2018-04-10T05:12:21.850Z,6.20
2018-04-10T05:14:47.727Z,6.06
2018-04-10T05:17:13.609Z,6.18
2018-04-10T05:19:39.478Z,6.21
2018-04-10T05:22:05.346Z,6.06
2018-04-10T05:24:31.212Z,5.80
2018-04-10T05:26:57.053Z,5.81
2018-04-10T05:29:22.973Z,5.99
2018-04-10T05:31:48.888Z,6.32
2018-04-10T05:34:14.730Z,6.54
2018-04-10T05:36:40.585Z,6.75
2018-04-10T05:39:06.504Z,6.93
2018-04-10T05:41:32.359Z,7.10
2018-04-10T05:43:58.200Z,7.14
2018-04-10T05:46:24.045Z,7.21
2018-04-10T05:48:49.872Z,7.19
2018-04-10T05:51:15.748Z,7.51
2018-04-10T05:53:41.596Z,7.66
2018-04-10T05:56:07.410Z,7.62
2018-04-10T05:58:33.256Z,7.78
2018-04-10T06:00:59.147Z,7.83
2018-04-10T06:03:24.990Z,7.79
2018-04-10T06:05:50.856Z,7.92
2018-04-10T06:08:16.689Z,8.04
2018-04-10T06:10:42.544Z,8.36
2018-04-10T06:13:08.373Z,8.61
2018-04-10T06:15:34.225Z,8.74
2018-04-10T06:18:00.049Z,8.95
2018-04-10T06:20:25.927Z,8.92
2018-04-10T06:22:51.824Z,9.08
2018-04-10T06:25:17.645Z,9.23
2018-04-10T06:27:43.515Z,9.57
2018-04-10T06:30:09.351Z,9.71
2018-04-10T06:32:35.161Z,9.78
2018-04-10T06:35:00.980Z,10.05
2018-04-10T06:37:26.849Z,10.25
2018-04-10T06:39:52.716Z,10.43
2018-04-10T06:42:18.548Z,10.54
2018-04-10T06:44:44.388Z,10.88
2018-04-10T06:47:10.248Z,10.97
2018-04-10T06:49:36.107Z,11.39
2018-04-10T06:52:01.952Z,11.43
2018-04-10T06:54:27.866Z,11.67
2018-04-10T06:56:53.737Z,11.58
2018-04-10T06:59:19.557Z,11.80
2018-04-10T07:01:45.389Z,11.79
2018-04-10T07:04:11.215Z,12.09
2018-04-10T07:06:37.057Z,12.52
2018-04-10T07:09:02.943Z,12.96
2018-04-10T07:11:28.807Z,13.08
2018-04-10T07:13:54.652Z,13.35
2018-04-10T07:16:20.528Z,13.29
2018-04-10T07:18:46.386Z,13.37
2018-04-10T07:21:12.203Z,13.61
2018-04-10T07:23:38.036Z,13.69
2018-04-10T07:26:03.876Z,14.25
2018-04-10T07:28:29.724Z,14.51
2018-04-10T07:30:55.552Z,14.50
2018-04-10T07:33:21.401Z,14.44
2018-04-10T07:35:47.264Z,14.34
2018-04-10T07:38:13.096Z,14.76
2018-04-10T07:40:38.953Z,14.86
2018-04-10T07:43:04.804Z,14.82
2018-04-10T07:45:30.641Z,15.03
2018-04-10T07:47:56.495Z,15.45
2018-04-10T07:50:22.322Z,16.06
2018-04-10T07:52:48.167Z,16.03
2018-04-10T07:55:14.019Z,16.15
2018-04-10T07:57:39.882Z,16.23
2018-04-10T08:00:05.751Z,16.19
2018-04-10T08:02:31.609Z,16.68
2018-04-10T08:04:57.469Z,16.73
2018-04-10T08:07:23.290Z,16.90
2018-04-10T08:09:49.160Z,17.14
2018-04-10T08:12:15.004Z,16.94
2018-04-10T08:14:40.875Z,17.34
2018-04-10T08:17:06.718Z,17.52
2018-04-10T08:19:32.553Z,17.87
2018-04-10T08:21:58.441Z,17.79
2018-04-10T08:24:24.344Z,18.02
2018-04-10T08:26:50.157Z,18.01
2018-04-10T08:29:15.980Z,18.00
2018-04-10T08:31:41.796Z,17.85
2018-04-10T08:34:07.622Z,17.96
2018-04-10T08:36:33.481Z,18.17
2018-04-10T08:38:59.334Z,18.40
2018-04-10T08:41:25.196Z,18.54
2018-04-10T08:43:51.022Z,18.58
2018-04-10T08:46:16.857Z,18.62
2018-04-10T08:48:42.665Z,18.53
2018-04-10T08:51:08.522Z,18.58
2018-04-10T08:53:34.369Z,18.81
2018-04-10T08:56:00.201Z,18.86
2018-04-10T08:58:26.049Z,18.89
2018-04-10T09:00:51.870Z,19.04
2018-04-10T09:03:17.685Z,19.26
2018-04-10T09:05:43.532Z,19.43
2018-04-10T09:08:09.378Z,19.15
2018-04-10T09:10:35.234Z,19.48
2018-04-10T09:13:01.096Z,19.51
2018-04-10T09:15:26.993Z,19.37
2018-04-10T09:17:52.852Z,19.41
2018-04-10T09:20:18.684Z,19.54
2018-04-10T09:22:44.525Z,19.62
2018-04-10T09:25:10.405Z,19.59
2018-04-10T09:27:36.311Z,19.45
2018-04-10T09:30:02.228Z,19.76
2018-04-10T09:32:28.176Z,19.83
2018-04-10T09:34:54.060Z,19.88
2018-04-10T09:37:19.905Z,19.87
2018-04-10T09:39:45.786Z,19.98
2018-04-10T09:42:11.664Z,19.86
2018-04-10T09:44:37.495Z,19.83
2018-04-10T09:47:03.356Z,19.97
2018-04-10T09:49:29.196Z,19.90
2018-04-10T09:51:55.048Z,20.13
2018-04-10T09:54:20.890Z,20.04
2018-04-10T09:56:46.776Z,20.42
2018-04-10T09:59:12.625Z,20.24
2018-04-10T10:01:38.467Z,20.21
2018-04-10T10:04:04.289Z,20.16
2018-04-10T10:06:30.221Z,20.10
2018-04-10T10:08:56.140Z,20.24
2018-04-10T10:11:22.014Z,20.46
2018-04-10T10:13:47.880Z,20.55
2018-04-10T10:16:13.776Z,20.96
2018-04-10T10:18:39.629Z,20.57
2018-04-10T10:21:05.477Z,20.70
2018-04-10T10:23:31.332Z,20.92
2018-04-10T10:25:57.175Z,20.63
2018-04-10T10:28:23.033Z,20.45
2018-04-10T10:30:48.849Z,20.59
2018-04-10T10:33:14.708Z,20.54
2018-04-10T10:35:40.584Z,20.71
2018-04-10T10:38:06.452Z,20.87
2018-04-10T10:40:32.303Z,21.20
2018-04-10T10:42:58.176Z,21.24
2018-04-10T10:45:24.070Z,21.41
2018-04-10T10:47:49.910Z,21.47
2018-04-10T10:50:15.799Z,21.52
2018-04-10T10:52:41.676Z,21.41
2018-04-10T10:55:08.411Z,21.51
2018-04-10T10:57:34.247Z,21.61
2018-04-10T11:00:00.093Z,21.59
2018-04-10T11:02:25.951Z,21.53
2018-04-10T11:04:51.797Z,22.01
2018-04-10T11:07:17.625Z,22.24
2018-04-10T11:09:43.547Z,22.43
2018-04-10T11:12:09.408Z,22.38
2018-04-10T11:14:35.256Z,21.82
2018-04-10T11:17:01.133Z,21.96
2018-04-10T11:19:26.984Z,22.38
2018-04-10T11:21:52.844Z,22.18
2018-04-10T11:24:18.680Z,22.20
2018-04-10T11:26:44.527Z,22.52
2018-04-10T11:29:10.357Z,22.51
2018-04-10T11:31:36.223Z,22.16
2018-04-10T11:34:02.132Z,22.11
2018-04-10T11:36:28.010Z,21.67
2018-04-10T11:38:53.846Z,22.36
2018-04-10T11:41:19.694Z,22.61
2018-04-10T11:43:45.571Z,21.86
2018-04-10T11:46:11.411Z,21.42
2018-04-10T11:48:37.276Z,21.72
2018-04-10T11:51:03.219Z,22.24
2018-04-10T11:53:29.047Z,23.12
2018-04-10T11:55:54.879Z,22.91
2018-04-10T11:58:20.710Z,22.42
2018-04-10T12:00:46.564Z,22.13
2018-04-10T12:03:12.413Z,22.73
2018-04-10T12:05:38.239Z,22.57
2018-04-10T12:08:04.114Z,22.63
2018-04-10T12:10:29.963Z,22.52
2018-04-10T12:12:55.781Z,21.88
2018-04-10T12:15:21.647Z,21.84
2018-04-10T12:17:47.523Z,21.63
2018-04-10T12:20:13.403Z,21.11
2018-04-10T12:22:39.281Z,20.70
2018-04-10T12:25:05.223Z,20.85
2018-04-10T12:27:31.029Z,20.66
2018-04-10T12:29:56.900Z,20.54
2018-04-10T12:32:22.783Z,20.78
2018-04-10T12:34:48.630Z,20.96
2018-04-10T12:37:14.522Z,21.04
2018-04-10T12:39:40.376Z,20.94
2018-04-10T12:42:06.229Z,21.52
2018-04-10T12:44:32.056Z,22.11
2018-04-10T12:46:57.881Z,22.70
2018-04-10T12:49:23.741Z,23.23
2018-04-10T12:51:49.617Z,23.22
2018-04-10T12:54:15.471Z,23.05
2018-04-10T12:56:41.321Z,22.70
2018-04-10T12:59:07.182Z,22.69
2018-04-10T13:01:33.021Z,22.73
2018-04-10T13:03:58.867Z,22.96
2018-04-10T13:06:24.727Z,22.79
2018-04-10T13:08:50.584Z,23.11
2018-04-10T13:11:16.451Z,23.12
2018-04-10T13:13:42.371Z,23.58
2018-04-10T13:16:08.148Z,23.95
2018-04-10T13:18:33.993Z,23.71
2018-04-10T13:20:59.833Z,24.23
2018-04-10T13:23:25.712Z,23.44
2018-04-10T13:25:51.614Z,23.27
2018-04-10T13:28:17.520Z,22.78
2018-04-10T13:30:43.426Z,23.34
2018-04-10T13:33:09.302Z,23.00
2018-04-10T13:35:35.192Z,23.73
2018-04-10T13:38:01.083Z,22.98
2018-04-10T13:40:26.970Z,23.22
2018-04-10T13:42:52.859Z,22.84
2018-04-10T13:45:18.729Z,22.75
2018-04-10T13:47:44.584Z,22.50
2018-04-10T13:50:10.436Z,22.36
2018-04-10T13:52:36.321Z,22.67
2018-04-10T13:55:02.202Z,22.51
2018-04-10T13:57:28.098Z,22.03
2018-04-10T13:59:53.953Z,22.54
2018-04-10T14:02:19.818Z,23.13
2018-04-10T14:04:45.713Z,22.76
2018-04-10T14:07:11.552Z,23.48
2018-04-10T14:09:37.412Z,23.62
2018-04-10T14:12:03.247Z,23.27
2018-04-10T14:14:29.150Z,23.54
2018-04-10T14:16:54.995Z,23.24
2018-04-10T14:19:20.860Z,23.27
2018-04-10T14:21:46.725Z,23.89
2018-04-10T14:24:12.588Z,24.52
2018-04-10T14:26:38.455Z,23.71
2018-04-10T14:29:04.343Z,23.02
2018-04-10T14:31:30.224Z,22.92
2018-04-10T14:33:56.143Z,22.76
2018-04-10T14:36:21.989Z,22.81
2018-04-10T14:38:47.872Z,23.23
2018-04-10T14:41:13.714Z,23.54
2018-04-10T14:43:39.594Z,23.63
2018-04-10T14:46:05.517Z,22.65
2018-04-10T14:48:31.426Z,22.97
2018-04-10T14:50:57.318Z,22.95
2018-04-10T14:53:23.223Z,23.76
2018-04-10T14:55:49.093Z,22.69
2018-04-10T14:58:14.973Z,23.28
2018-04-10T15:00:40.892Z,23.46
2018-04-10T15:03:06.802Z,22.86
2018-04-10T15:05:32.640Z,22.88
2018-04-10T15:07:58.490Z,22.87
2018-04-10T15:10:24.362Z,22.75
2018-04-10T15:12:50.233Z,22.60
2018-04-10T15:15:16.084Z,23.41
2018-04-10T15:17:42.025Z,23.54
2018-04-10T15:20:07.887Z,23.53
2018-04-10T15:22:33.775Z,22.81
2018-04-10T15:24:59.629Z,22.59
2018-04-10T15:27:25.609Z,22.34
2018-04-10T15:29:52.320Z,22.50
2018-04-10T15:32:18.226Z,23.00
2018-04-10T15:34:44.124Z,22.50
2018-04-10T15:37:10.004Z,22.05
2018-04-10T15:39:35.835Z,22.74
2018-04-10T15:42:01.683Z,23.41
2018-04-10T15:44:27.568Z,23.03
2018-04-10T15:46:53.445Z,23.06
2018-04-10T15:49:19.349Z,23.13
2018-04-10T15:51:45.225Z,22.92
2018-04-10T15:54:11.156Z,24.22
2018-04-10T15:56:36.997Z,23.45
2018-04-10T15:59:02.843Z,23.08
2018-04-10T16:01:28.712Z,23.00
2018-04-10T16:03:54.751Z,22.47
2018-04-10T16:06:20.599Z,22.68
2018-04-10T16:08:46.449Z,23.26
2018-04-10T16:11:12.361Z,23.28
2018-04-10T16:13:38.251Z,22.16
2018-04-10T16:16:04.171Z,21.83
2018-04-10T16:18:29.999Z,21.94
2018-04-10T16:20:55.859Z,21.97
2018-04-10T16:23:21.733Z,21.75
2018-04-10T16:25:47.600Z,21.39
2018-04-10T16:28:13.490Z,21.21
2018-04-10T16:30:39.374Z,21.09
2018-04-10T16:33:05.361Z,20.75
2018-04-10T16:35:31.172Z,21.05
2018-04-10T16:37:57.020Z,21.16
2018-04-10T16:40:22.933Z,20.66
2018-04-10T16:42:48.781Z,20.67
2018-04-10T16:45:14.613Z,20.45
2018-04-10T16:47:40.459Z,20.47
2018-04-10T16:50:06.293Z,20.04
2018-04-10T16:52:32.220Z,19.73
2018-04-10T16:54:58.071Z,19.78
2018-04-10T16:57:23.940Z,19.44
2018-04-10T16:59:49.785Z,19.60
2018-04-10T17:02:15.690Z,19.38
2018-04-10T17:04:41.525Z,19.32
2018-04-10T17:07:07.375Z,18.93
2018-04-10T17:09:34.096Z,18.88
2018-04-10T17:11:59.975Z,18.99
2018-04-10T17:14:25.856Z,18.49
2018-04-10T17:16:51.748Z,18.23
2018-04-10T17:19:17.632Z,18.29
2018-04-10T17:21:43.512Z,18.19
2018-04-10T17:24:09.467Z,18.27
2018-04-10T17:26:35.351Z,18.05
2018-04-10T17:29:01.245Z,18.01
2018-04-10T17:31:27.132Z,17.97
2018-04-10T17:33:53.048Z,18.09
2018-04-10T17:36:18.906Z,18.02
2018-04-10T17:38:44.766Z,17.93
2018-04-10T17:41:10.621Z,18.11
2018-04-10T17:43:36.514Z,18.00
2018-04-10T17:46:02.396Z,17.92
2018-04-10T17:48:28.216Z,17.61
2018-04-10T17:50:54.104Z,17.42
2018-04-10T17:53:20.025Z,17.24
2018-04-10T17:55:45.876Z,17.25
2018-04-10T17:58:11.732Z,17.38
2018-04-10T18:00:37.627Z,17.57
2018-04-10T18:03:03.537Z,17.60
2018-04-10T18:05:29.390Z,17.64
2018-04-10T18:07:55.239Z,17.66
2018-04-10T18:10:21.091Z,17.70
2018-04-10T18:12:46.929Z,17.44
2018-04-10T18:15:12.779Z,17.46
2018-04-10T18:17:38.644Z,17.30
2018-04-10T18:20:04.520Z,16.84
2018-04-10T18:22:30.380Z,16.88
2018-04-10T18:24:56.240Z,16.87
2018-04-10T18:27:22.099Z,17.03
2018-04-10T18:29:47.919Z,16.91
2018-04-10T18:32:14.683Z,16.84
2018-04-10T18:34:40.561Z,16.79
2018-04-10T18:37:06.443Z,16.70
2018-04-10T18:39:32.302Z,16.64
2018-04-10T18:41:58.160Z,16.61
2018-04-10T18:44:24.026Z,16.46
2018-04-10T18:46:49.970Z,16.30
2018-04-10T18:49:15.912Z,16.36
2018-04-10T18:51:41.749Z,16.44
2018-04-10T18:54:07.651Z,16.48
2018-04-10T18:56:33.504Z,16.50
2018-04-10T18:58:59.348Z,16.43
2018-04-10T19:01:25.236Z,16.34
2018-04-10T19:03:51.136Z,16.22
2018-04-10T19:06:17.030Z,16.23
2018-04-10T19:08:42.973Z,16.20
2018-04-10T19:11:08.871Z,16.13
2018-04-10T19:13:34.820Z,16.16
2018-04-10T19:16:00.734Z,16.18
2018-04-10T19:18:26.617Z,16.05
2018-04-10T19:20:52.465Z,16.17
2018-04-10T19:23:18.333Z,16.12
2018-04-10T19:25:44.216Z,16.10
2018-04-10T19:28:10.093Z,15.99
2018-04-10T19:30:35.969Z,16.07
2018-04-10T19:33:01.841Z,16.03
2018-04-10T19:35:27.753Z,15.97
2018-04-10T19:37:53.598Z,15.88
2018-04-10T19:40:19.491Z,15.78
2018-04-10T19:42:45.353Z,15.71
2018-04-10T19:45:11.260Z,15.77
2018-04-10T19:47:37.120Z,15.67
2018-04-10T19:50:03.006Z,15.51
2018-04-10T19:52:28.890Z,15.41
2018-04-10T19:54:54.738Z,15.31
2018-04-10T19:57:20.635Z,15.38
2018-04-10T19:59:46.510Z,15.30
2018-04-10T20:02:12.392Z,15.23
2018-04-10T20:04:38.237Z,15.25
2018-04-10T20:07:04.103Z,15.26
2018-04-10T20:09:29.912Z,15.19
2018-04-10T20:11:55.797Z,15.25
2018-04-10T20:14:21.668Z,15.10
2018-04-10T20:16:47.506Z,15.11
2018-04-10T20:19:13.334Z,14.95
2018-04-10T20:21:39.189Z,14.98
2018-04-10T20:24:05.065Z,14.96
2018-04-10T20:26:30.924Z,15.10
2018-04-10T20:28:56.794Z,15.09
2018-04-10T20:31:22.640Z,15.14
2018-04-10T20:33:48.523Z,15.19
2018-04-10T20:36:14.373Z,15.25
2018-04-10T20:38:40.266Z,15.37
2018-04-10T20:41:06.169Z,15.31
2018-04-10T20:43:32.022Z,15.36
2018-04-10T20:45:58.041Z,15.45
2018-04-10T20:48:23.987Z,15.30
2018-04-10T20:50:49.880Z,15.14
2018-04-10T20:53:15.737Z,15.14
2018-04-10T20:55:41.624Z,15.11
2018-04-10T20:58:07.529Z,15.08
2018-04-10T21:00:33.383Z,15.19
2018-04-10T21:02:59.250Z,15.16
2018-04-10T21:05:25.138Z,15.03
2018-04-10T21:07:50.980Z,15.00
2018-04-10T21:10:16.837Z,14.94
2018-04-10T21:12:42.656Z,15.07
2018-04-10T21:15:08.490Z,14.98
2018-04-10T21:17:34.307Z,14.94
2018-04-10T21:20:00.159Z,15.05
2018-04-10T21:22:25.972Z,15.17
2018-04-10T21:24:51.864Z,15.35
2018-04-10T21:27:17.697Z,15.52
2018-04-10T21:29:43.516Z,15.45
2018-04-10T21:32:09.400Z,15.45
2018-04-10T21:34:35.259Z,15.39
2018-04-10T21:37:01.120Z,15.12
2018-04-10T21:39:26.980Z,14.79
2018-04-10T21:41:52.835Z,14.66
2018-04-10T21:44:18.704Z,14.48
2018-04-10T21:46:44.581Z,14.40
2018-04-10T21:49:10.399Z,14.35
2018-04-10T21:51:36.240Z,14.34
2018-04-10T21:54:02.094Z,14.35
2018-04-10T21:56:27.936Z,14.34
2018-04-10T21:58:53.768Z,14.32
2018-04-10T22:01:19.606Z,14.27
2018-04-10T22:03:45.454Z,14.29
2018-04-10T22:06:11.359Z,14.27
2018-04-10T22:08:37.194Z,14.18
2018-04-10T22:11:03.047Z,14.12
2018-04-10T22:13:28.995Z,14.18
2018-04-10T22:15:54.816Z,14.07
2018-04-10T22:18:20.668Z,14.03
2018-04-10T22:20:46.492Z,14.00
2018-04-10T22:23:12.355Z,13.92
2018-04-10T22:25:38.200Z,13.85
2018-04-10T22:28:04.058Z,13.86
2018-04-10T22:30:29.888Z,13.84
2018-04-10T22:32:55.680Z,13.88
2018-04-10T22:35:21.501Z,13.80
2018-04-10T22:37:47.333Z,13.64
2018-04-10T22:40:13.241Z,13.50
2018-04-10T22:42:39.092Z,13.39
2018-04-10T22:45:05.008Z,13.17
2018-04-10T22:47:30.861Z,12.95
2018-04-10T22:49:56.695Z,12.84
2018-04-10T22:52:22.588Z,12.80
2018-04-10T22:54:48.472Z,12.73
2018-04-10T22:57:14.322Z,12.58
2018-04-10T22:59:40.160Z,12.48
2018-04-10T23:02:06.039Z,12.47
2018-04-10T23:04:31.906Z,12.41
2018-04-10T23:06:57.745Z,12.42
2018-04-10T23:09:23.573Z,12.46
2018-04-10T23:11:49.465Z,12.19
2018-04-10T23:14:15.304Z,12.14
2018-04-10T23:16:41.166Z,12.21
2018-04-10T23:19:07.036Z,11.98
2018-04-10T23:21:32.904Z,11.99
2018-04-10T23:23:58.769Z,11.78
2018-04-10T23:26:24.625Z,11.69
2018-04-10T23:28:50.472Z,11.59
2018-04-10T23:31:16.347Z,11.56
2018-04-10T23:33:42.189Z,11.61
2018-04-10T23:36:08.013Z,11.69
2018-04-10T23:38:33.868Z,11.62
2018-04-10T23:40:59.713Z,11.61
2018-04-10T23:43:25.596Z,11.63
2018-04-10T23:45:51.462Z,11.51
2018-04-10T23:48:17.356Z,11.50
2018-04-10T23:50:43.216Z,11.58
2018-04-10T23:53:09.099Z,11.80
2018-04-10T23:55:34.929Z,11.58
2018-04-10T23:58:00.770Z,11.70
